LFHP

Le Puy-Loudes Airport

Airport
ICAO code
LFHP
IATA Code
LPY
Summary
ICAO Region
EUR
ICAO Territory
Location

, Auvergne

Serving
Le Puy
Elevation
2731 ft
Coordinates
45° 4' 50" N , 3° 45' 46" E
Metar
LFHP 300730Z AUTO 27005KT 210V310 9999 OVC019 14/12 Q1012

Runways

Designator Length Width Surface Rops
15R/33L 767 58 GRS No/No
15/33 1445 30 ASP No/No

Airport map

Aerial View

SKYbrary Partners:

Safety knowledge contributed by: